createdAt,value
2022-10-03T00:00:13.848Z,11.20
2022-10-03T00:03:38.018Z,11.20
2022-10-03T00:06:53.579Z,11.30
2022-10-03T00:10:09.294Z,11.30
2022-10-03T00:13:25.472Z,11.40
2022-10-03T00:16:40.319Z,11.40
2022-10-03T00:19:53.056Z,11.40
2022-10-03T00:23:02.425Z,11.50
2022-10-03T00:30:04.272Z,11.50
2022-10-03T00:33:22.545Z,11.50
2022-10-03T00:36:35.020Z,11.60
2022-10-03T00:39:50.838Z,11.60
2022-10-03T00:43:35.106Z,11.60
2022-10-03T00:47:03.379Z,11.60
2022-10-03T00:50:39.495Z,11.60
2022-10-03T00:53:54.436Z,11.60
2022-10-03T00:57:26.334Z,11.60
2022-10-03T01:00:30.875Z,11.60
2022-10-03T01:03:43.621Z,11.60
2022-10-03T01:06:50.026Z,11.50
2022-10-03T01:10:02.999Z,11.50
2022-10-03T01:13:18.968Z,11.60
2022-10-03T01:16:27.934Z,11.60
2022-10-03T01:19:49.369Z,11.60
2022-10-03T01:23:08.956Z,11.50
2022-10-03T01:26:27.545Z,11.50
2022-10-03T01:30:02.487Z,11.50
2022-10-03T01:33:11.243Z,11.50
2022-10-03T01:36:20.237Z,11.50
2022-10-03T01:39:28.570Z,11.50
2022-10-03T01:42:41.779Z,11.60
2022-10-03T01:46:02.245Z,11.50
2022-10-03T01:49:11.928Z,11.60
2022-10-03T01:52:25.271Z,11.60
2022-10-03T01:55:42.572Z,11.60
2022-10-03T01:58:56.683Z,11.60
2022-10-03T02:02:08.537Z,11.70
2022-10-03T02:05:16.088Z,11.60
2022-10-03T02:08:31.810Z,11.60
2022-10-03T02:11:40.256Z,11.60
2022-10-03T02:14:52.627Z,11.60
2022-10-03T02:17:59.034Z,11.60
2022-10-03T02:21:14.264Z,11.60
2022-10-03T02:24:33.425Z,11.60
2022-10-03T02:28:02.066Z,11.70
2022-10-03T02:31:30.154Z,11.80
2022-10-03T02:35:02.560Z,11.80
2022-10-03T02:38:13.889Z,11.80
2022-10-03T02:41:56.364Z,11.80
2022-10-03T02:45:24.936Z,11.90
2022-10-03T02:48:54.551Z,11.80
2022-10-03T02:52:27.853Z,11.80
2022-10-03T02:55:59.052Z,11.80
2022-10-03T02:59:28.809Z,11.80
2022-10-03T03:03:10.866Z,11.80
2022-10-03T03:06:52.743Z,11.80
2022-10-03T03:10:34.242Z,11.80
2022-10-03T03:14:23.644Z,11.80
2022-10-03T03:17:35.992Z,11.80
2022-10-03T03:21:06.561Z,11.80
2022-10-03T03:24:29.627Z,11.80
2022-10-03T03:27:48.818Z,11.90
2022-10-03T03:31:02.305Z,11.90
2022-10-03T03:34:15.658Z,11.90
2022-10-03T03:37:27.616Z,11.90
2022-10-03T03:40:41.420Z,11.90
2022-10-03T03:43:59.380Z,11.90
2022-10-03T03:47:19.363Z,11.90
2022-10-03T03:50:43.395Z,11.80
2022-10-03T03:54:02.294Z,11.90
2022-10-03T03:57:35.692Z,11.80
2022-10-03T04:01:03.447Z,11.90
2022-10-03T04:04:17.558Z,11.80
2022-10-03T04:07:34.704Z,11.80
2022-10-03T04:10:48.585Z,11.80
2022-10-03T04:14:19.477Z,11.80
2022-10-03T04:17:56.176Z,11.80
2022-10-03T04:21:18.800Z,11.80
2022-10-03T04:24:44.983Z,11.80
2022-10-03T04:28:13.689Z,11.80
2022-10-03T04:31:29.298Z,11.80
2022-10-03T04:34:46.964Z,11.80
2022-10-03T04:37:58.388Z,11.80
2022-10-03T04:41:09.258Z,11.80
2022-10-03T04:44:22.269Z,11.80
2022-10-03T04:47:29.735Z,11.80
2022-10-03T04:50:40.085Z,11.80
2022-10-03T04:53:53.794Z,11.80
2022-10-03T04:57:03.042Z,11.80
2022-10-03T05:00:21.867Z,11.80
2022-10-03T05:03:35.270Z,11.80
2022-10-03T05:06:49.606Z,11.80
2022-10-03T05:09:56.367Z,11.80
2022-10-03T05:13:08.631Z,11.80
2022-10-03T05:16:21.888Z,11.70
2022-10-03T05:19:47.247Z,11.70
2022-10-03T05:23:00.339Z,11.80
2022-10-03T05:26:40.210Z,11.80
2022-10-03T05:29:41.489Z,11.80
2022-10-03T05:32:48.686Z,11.90
2022-10-03T05:36:07.656Z,11.80
2022-10-03T05:39:27.810Z,11.80
2022-10-03T05:42:47.562Z,11.80
2022-10-03T05:45:58.568Z,11.90
2022-10-03T05:49:19.403Z,11.90
2022-10-03T05:52:49.396Z,11.90
2022-10-03T05:56:06.422Z,11.90
2022-10-03T05:59:40.978Z,11.90
2022-10-03T06:03:13.457Z,11.90
2022-10-03T06:06:25.932Z,11.90
2022-10-03T06:09:49.208Z,12.00
2022-10-03T06:13:06.982Z,12.00
2022-10-03T06:16:25.562Z,11.90
2022-10-03T06:19:44.352Z,11.90
2022-10-03T06:23:12.941Z,12.00
2022-10-03T06:27:06.076Z,12.00
2022-10-03T06:30:40.282Z,12.00
2022-10-03T06:34:08.229Z,12.00
2022-10-03T06:37:50.864Z,12.00
2022-10-03T06:41:31.923Z,12.00
2022-10-03T06:44:55.234Z,12.10
2022-10-03T06:48:14.691Z,12.20
2022-10-03T06:51:42.782Z,12.30
2022-10-03T06:55:29.885Z,12.20
2022-10-03T06:59:06.012Z,12.30
2022-10-03T07:02:52.971Z,12.40
2022-10-03T07:06:11.636Z,12.40
2022-10-03T07:10:01.030Z,12.40
2022-10-03T07:13:39.483Z,12.40
2022-10-03T07:17:01.358Z,12.50
2022-10-03T07:20:27.382Z,12.60
2022-10-03T07:23:49.996Z,12.70
2022-10-03T07:27:19.649Z,12.70
2022-10-03T07:30:23.466Z,12.80
2022-10-03T07:34:14.656Z,12.80
2022-10-03T07:37:52.049Z,12.80
2022-10-03T07:41:22.356Z,12.90
2022-10-03T07:44:55.948Z,13.00
2022-10-03T07:48:32.133Z,13.10
2022-10-03T07:51:45.161Z,13.20
2022-10-03T07:55:29.238Z,13.20
2022-10-03T07:59:03.682Z,13.20
2022-10-03T08:02:27.729Z,13.20
2022-10-03T08:05:44.169Z,13.20
2022-10-03T08:09:23.708Z,13.20
2022-10-03T08:13:02.422Z,13.20
2022-10-03T08:16:23.338Z,13.20
2022-10-03T08:19:43.783Z,13.30
2022-10-03T08:23:00.605Z,13.40
2022-10-03T08:26:15.181Z,13.50
2022-10-03T08:29:42.791Z,13.60
2022-10-03T08:33:21.586Z,13.60
2022-10-03T08:37:05.645Z,13.70
2022-10-03T08:40:53.608Z,13.70
2022-10-03T08:44:30.733Z,13.80
2022-10-03T08:48:24.995Z,13.70
2022-10-03T08:52:08.679Z,13.80
2022-10-03T08:55:42.815Z,13.90
2022-10-03T08:59:24.403Z,13.90
2022-10-03T09:03:31.519Z,14.00
2022-10-03T09:07:15.888Z,14.20
2022-10-03T09:10:36.769Z,14.20
2022-10-03T09:14:21.720Z,14.30
2022-10-03T09:17:55.730Z,14.40
2022-10-03T09:21:40.493Z,14.40
2022-10-03T09:25:05.800Z,14.40
2022-10-03T09:28:40.842Z,14.50
2022-10-03T09:32:25.577Z,14.60
2022-10-03T09:36:06.029Z,14.50
2022-10-03T09:39:46.407Z,14.60
2022-10-03T09:43:19.454Z,14.70
2022-10-03T09:47:10.131Z,14.80
2022-10-03T09:50:57.986Z,14.90
2022-10-03T09:54:28.089Z,14.90
2022-10-03T09:58:00.557Z,15.00
2022-10-03T10:01:20.643Z,15.40
2022-10-03T10:04:57.538Z,15.50
2022-10-03T10:08:33.352Z,15.50
2022-10-03T10:12:05.429Z,15.40
2022-10-03T10:15:24.048Z,15.30
2022-10-03T10:18:52.472Z,15.30
2022-10-03T10:22:35.485Z,15.30
2022-10-03T10:26:25.306Z,15.40
2022-10-03T10:29:47.011Z,15.60
2022-10-03T10:33:29.840Z,15.60
2022-10-03T10:37:09.028Z,15.70
2022-10-03T10:40:51.443Z,16.10
2022-10-03T10:44:35.984Z,16.30
2022-10-03T10:48:18.986Z,16.40
2022-10-03T10:52:11.812Z,16.40
2022-10-03T10:55:53.954Z,16.30
2022-10-03T10:59:43.278Z,16.40
2022-10-03T11:03:19.576Z,16.60
2022-10-03T11:06:59.117Z,16.40
2022-10-03T11:10:31.729Z,16.50
2022-10-03T11:14:24.393Z,16.40
2022-10-03T11:17:51.729Z,16.40
2022-10-03T11:21:27.417Z,16.40
2022-10-03T11:25:08.544Z,16.40
2022-10-03T11:29:10.024Z,16.50
2022-10-03T11:32:50.171Z,16.70
2022-10-03T11:36:32.697Z,16.70
2022-10-03T11:39:48.052Z,16.50
2022-10-03T11:42:58.082Z,16.50
2022-10-03T11:46:19.442Z,16.40
2022-10-03T11:49:54.817Z,16.40
2022-10-03T11:53:14.820Z,16.50
2022-10-03T11:56:33.505Z,16.40
2022-10-03T11:59:54.491Z,16.50
2022-10-03T12:03:13.752Z,16.50
2022-10-03T12:06:58.253Z,16.50
2022-10-03T12:10:13.223Z,16.70
2022-10-03T12:13:19.331Z,16.80
2022-10-03T12:16:29.666Z,16.80
2022-10-03T12:19:38.549Z,16.90
2022-10-03T12:22:46.681Z,16.80
2022-10-03T12:25:53.326Z,16.90
2022-10-03T12:28:58.548Z,16.80
2022-10-03T12:32:16.930Z,16.70
2022-10-03T12:35:37.440Z,16.50
2022-10-03T12:38:57.219Z,16.20
2022-10-03T12:42:16.923Z,16.20
2022-10-03T12:45:27.607Z,16.30
2022-10-03T12:48:43.012Z,16.40
2022-10-03T12:51:55.127Z,16.70
2022-10-03T12:55:16.641Z,16.80
2022-10-03T12:58:30.990Z,16.70
2022-10-03T13:01:52.400Z,16.60
2022-10-03T13:05:22.957Z,16.60
2022-10-03T13:08:44.492Z,16.50
2022-10-03T13:11:59.197Z,16.50
2022-10-03T13:15:45.481Z,16.40
2022-10-03T13:18:54.190Z,16.40
2022-10-03T13:22:07.168Z,16.50
2022-10-03T13:25:18.480Z,16.80
2022-10-03T13:28:31.090Z,17.00
2022-10-03T13:31:35.809Z,17.20
2022-10-03T13:34:58.058Z,17.30
2022-10-03T13:38:23.761Z,17.30
2022-10-03T13:41:52.343Z,17.30
2022-10-03T13:44:59.397Z,17.20
2022-10-03T13:48:08.451Z,17.20
2022-10-03T13:51:27.188Z,17.20
2022-10-03T13:55:05.948Z,17.10
2022-10-03T13:58:32.600Z,17.10
2022-10-03T14:01:45.645Z,17.20
2022-10-03T14:05:01.776Z,17.20
2022-10-03T14:08:14.277Z,17.20
2022-10-03T14:11:27.027Z,17.40
2022-10-03T14:14:47.038Z,17.50
2022-10-03T14:17:56.861Z,17.50
2022-10-03T14:21:38.386Z,17.50
2022-10-03T14:24:58.686Z,17.40
2022-10-03T14:28:08.209Z,17.50
2022-10-03T14:31:18.339Z,17.40
2022-10-03T14:34:42.249Z,17.20
2022-10-03T14:37:53.555Z,17.20
2022-10-03T14:41:04.965Z,17.00
2022-10-03T14:44:13.595Z,17.00
2022-10-03T14:47:19.590Z,16.90
2022-10-03T14:50:26.189Z,16.70
2022-10-03T14:53:30.733Z,16.60
2022-10-03T14:56:42.884Z,16.50
2022-10-03T14:59:54.281Z,16.40
2022-10-03T15:02:57.127Z,16.40
2022-10-03T15:06:03.524Z,16.30
2022-10-03T15:09:11.077Z,16.30
2022-10-03T15:12:20.638Z,16.30
2022-10-03T15:15:27.575Z,16.20
2022-10-03T15:18:32.719Z,16.20
2022-10-03T15:21:36.624Z,16.20
2022-10-03T15:24:42.138Z,16.10
2022-10-03T15:27:50.366Z,16.00
2022-10-03T15:30:56.021Z,16.00
2022-10-03T15:34:00.631Z,16.00
2022-10-03T15:37:13.736Z,16.00
2022-10-03T15:40:24.785Z,15.90
2022-10-03T15:43:36.898Z,15.80
2022-10-03T15:46:45.156Z,15.80
2022-10-03T15:49:54.512Z,15.70
2022-10-03T15:53:24.264Z,15.60
2022-10-03T15:56:29.725Z,15.60
2022-10-03T15:59:37.524Z,15.60
2022-10-03T16:02:52.714Z,15.50
2022-10-03T16:06:04.044Z,15.40
2022-10-03T16:09:17.102Z,15.40
2022-10-03T16:12:54.709Z,15.40
2022-10-03T16:16:13.655Z,15.40
2022-10-03T16:19:32.653Z,15.30
2022-10-03T16:22:43.670Z,15.30
2022-10-03T16:25:50.230Z,15.30
2022-10-03T16:29:02.602Z,15.20
2022-10-03T16:32:10.522Z,15.10
2022-10-03T16:35:31.300Z,15.00
2022-10-03T16:38:37.855Z,14.90
2022-10-03T16:41:43.965Z,14.90
2022-10-03T16:44:51.876Z,14.90
2022-10-03T16:48:16.970Z,14.80
2022-10-03T16:51:22.816Z,14.80
2022-10-03T16:54:26.704Z,14.70
2022-10-03T16:57:37.049Z,14.70
2022-10-03T17:00:59.588Z,14.70
2022-10-03T17:04:17.263Z,14.70
2022-10-03T17:07:23.641Z,14.60
2022-10-03T17:10:38.042Z,14.60
2022-10-03T17:13:46.834Z,14.60
2022-10-03T17:16:55.625Z,14.50
2022-10-03T17:20:06.961Z,14.50
2022-10-03T17:23:14.189Z,14.40
2022-10-03T17:26:23.352Z,14.50
2022-10-03T17:29:31.960Z,14.40
2022-10-03T17:32:39.962Z,14.50
2022-10-03T17:35:50.484Z,14.40
2022-10-03T17:39:02.361Z,14.40
2022-10-03T17:42:13.205Z,14.30
2022-10-03T17:45:30.593Z,14.30
2022-10-03T17:48:40.314Z,14.30
2022-10-03T17:51:48.072Z,14.30
2022-10-03T17:54:56.648Z,14.20
2022-10-03T17:58:01.701Z,14.20
2022-10-03T18:01:11.454Z,14.20
2022-10-03T18:04:18.605Z,14.20
2022-10-03T18:07:25.949Z,14.10
2022-10-03T18:10:35.228Z,14.10
2022-10-03T18:13:42.293Z,14.10
2022-10-03T18:16:48.450Z,14.10
2022-10-03T18:20:09.134Z,14.10
2022-10-03T18:23:49.833Z,14.10
2022-10-03T18:26:49.736Z,14.10
2022-10-03T18:29:58.285Z,14.10
2022-10-03T18:33:02.721Z,14.20
2022-10-03T18:36:15.923Z,14.20
2022-10-03T18:39:23.876Z,14.10
2022-10-03T18:42:29.640Z,14.10
2022-10-03T18:45:37.974Z,14.10
2022-10-03T18:49:28.146Z,14.00
2022-10-03T18:52:25.399Z,13.90
2022-10-03T18:55:36.343Z,13.90
2022-10-03T18:58:44.049Z,13.80
2022-10-03T19:01:54.263Z,13.80
2022-10-03T19:05:04.056Z,13.70
2022-10-03T19:08:12.399Z,13.70
2022-10-03T19:11:22.874Z,13.70
2022-10-03T19:14:32.400Z,13.60
2022-10-03T19:17:41.045Z,13.70
2022-10-03T19:20:46.527Z,13.60
2022-10-03T19:23:55.077Z,13.70
2022-10-03T19:27:02.271Z,13.70
2022-10-03T19:30:08.645Z,13.60
2022-10-03T19:33:18.219Z,13.70
2022-10-03T19:36:23.634Z,13.70
2022-10-03T19:39:28.818Z,13.70
2022-10-03T19:42:42.353Z,13.70
2022-10-03T19:45:50.311Z,13.70
2022-10-03T19:49:18.330Z,13.60
2022-10-03T19:52:28.678Z,13.60
2022-10-03T19:55:34.489Z,13.60
2022-10-03T19:58:38.681Z,13.60
2022-10-03T20:01:45.853Z,13.60
2022-10-03T20:04:51.277Z,13.60
2022-10-03T20:08:01.379Z,13.60
2022-10-03T20:11:14.145Z,13.60
2022-10-03T20:14:23.577Z,13.60
2022-10-03T20:17:27.260Z,13.60
2022-10-03T20:20:33.626Z,13.60
2022-10-03T20:23:40.732Z,13.60
2022-10-03T20:26:50.131Z,13.60
2022-10-03T20:30:17.897Z,13.60
2022-10-03T20:33:23.256Z,13.60
2022-10-03T20:36:29.476Z,13.60
2022-10-03T20:39:37.367Z,13.60
2022-10-03T20:42:46.465Z,13.60
2022-10-03T20:46:06.044Z,13.60
2022-10-03T20:49:20.764Z,13.60
2022-10-03T20:52:25.498Z,13.60
2022-10-03T20:55:33.237Z,13.60
2022-10-03T20:58:41.189Z,13.60
2022-10-03T21:01:46.961Z,13.60
2022-10-03T21:04:54.991Z,13.60
2022-10-03T21:08:00.298Z,13.60
2022-10-03T21:11:05.634Z,13.60
2022-10-03T21:14:18.008Z,13.60
2022-10-03T21:17:22.623Z,13.60
2022-10-03T21:20:32.144Z,13.60
2022-10-03T21:23:42.273Z,13.60
2022-10-03T21:26:47.518Z,13.50
2022-10-03T21:29:59.485Z,13.60
2022-10-03T21:33:10.898Z,13.50
2022-10-03T21:36:18.868Z,13.50
2022-10-03T21:39:29.312Z,13.50
2022-10-03T21:42:42.073Z,13.50
2022-10-03T21:45:53.491Z,13.50
2022-10-03T21:49:24.429Z,13.50
2022-10-03T21:52:41.813Z,13.50
2022-10-03T21:55:59.294Z,13.50
2022-10-03T21:59:15.738Z,13.50
2022-10-03T22:02:27.996Z,13.50
2022-10-03T22:05:42.366Z,13.50
2022-10-03T22:08:47.315Z,13.50
2022-10-03T22:11:55.905Z,13.50
2022-10-03T22:15:06.057Z,13.50
2022-10-03T22:18:12.368Z,13.50
2022-10-03T22:21:26.833Z,13.50
2022-10-03T22:24:40.400Z,13.50
2022-10-03T22:27:49.406Z,13.50
2022-10-03T22:30:59.184Z,13.50
2022-10-03T22:34:17.648Z,13.40
2022-10-03T22:37:22.749Z,13.40
2022-10-03T22:40:26.992Z,13.40
2022-10-03T22:43:30.556Z,13.40
2022-10-03T22:46:35.457Z,13.50
2022-10-03T22:49:40.673Z,13.40
2022-10-03T22:52:50.723Z,13.40
2022-10-03T22:55:58.362Z,13.40
2022-10-03T22:59:02.365Z,13.40
2022-10-03T23:02:08.540Z,13.40
2022-10-03T23:05:16.473Z,13.40
2022-10-03T23:08:27.039Z,13.40
2022-10-03T23:11:31.902Z,13.40
2022-10-03T23:14:37.566Z,13.40
2022-10-03T23:18:03.917Z,13.40
2022-10-03T23:21:08.714Z,13.40
2022-10-03T23:24:18.115Z,13.50
2022-10-03T23:27:47.557Z,13.40
2022-10-03T23:30:53.200Z,13.40
2022-10-03T23:33:55.944Z,13.40
2022-10-03T23:37:04.925Z,13.40
2022-10-03T23:40:28.541Z,13.40
2022-10-03T23:43:36.980Z,13.40
2022-10-03T23:46:39.898Z,13.30
2022-10-03T23:49:46.922Z,13.30
2022-10-03T23:52:53.494Z,13.30
2022-10-03T23:55:58.895Z,13.40
2022-10-03T23:59:16.937Z,13.30
